首页
METAR-TAF:

METAR-TAF

机场 :

維也納, 奥地利

維也納國際機場

纬度: 48-07N, 经度: 016-34E, 海拔: 183米

当前天气观测

该预报发布于21分钟前的01:20 UTC
风速10节,风向西转西南
温度 4°C
湿度 87%
气压 1004 hPa
能见度10公里或以上
少量云层高于5000英尺
多云层高于7000英尺

METAR: LOWW 190120Z 24010KT 9999 FEW050 BKN070 04/02 Q1004 NOSIG

时间: 02:41 (01:41 UTC)

预报

该预报发布于2小时和26分钟前的23:15 UTC
预报有效从19日的 00点(UTC)到 20日的 06点(UTC)
风速12节,风向西
能见度10公里或以上
少量云层高于3000英尺
多云层高于4000英尺
小雨
几率 30% :
短暂存在
从 19日的 00点(UTC)到 19日的 08点(UTC)
风速18节,风向西转西北
能見度: 8000
多云层高于3000英尺
成为
从 19日的 08点(UTC)到 19日的 11点(UTC)
能见度10公里或以上
1500米以下无云,无积雨云
短暂存在
从 19日的 08点(UTC)到 19日的 17点(UTC)
风速22节,风向西转西北,有时为32节阵风
成为
从 19日的 20点(UTC)到 19日的 22点(UTC)
风速7节,风向
短暂存在
从 20日的 03点(UTC)到 20日的 06点(UTC)
少量云层高于3000英尺
多云层高于4000英尺
小雪

TAF: LOWW 182315Z 1900/2006 27012KT 9999 -RA FEW030 BKN040 TX08/1900Z TN00/2002Z PROB30 TEMPO 1900/1908 30018KT 8000 RA BKN030 BECMG 1908/1911 CAVOK TEMPO 1908/1917 30022G32KT BECMG 1920/1922 18007KT TEMPO 2003/2006 -SN FEW030 BKN040

超过4000个机场的气象观测和天气预报(METAR&TAF报告)。

可查询的气象台以黄色和红色小点在地图上表示。

将鼠标移到小点上方,可查看气象台名称。

然后点击查看天气观测和预报。

如需切换地图:点击带黑十字的绿色按钮放大地图;点击带横线的绿色按钮缩小地图;或者点击绿色箭头查看邻近地区的地图。


METAR-TAF: